createdAt,value
2019-02-21T00:01:01.768Z,101357.77
2019-02-21T00:03:31.274Z,101356.08
2019-02-21T00:06:00.616Z,101345.39
2019-02-21T00:08:30.017Z,101360.41
2019-02-21T00:10:59.379Z,101359.28
2019-02-21T00:13:28.819Z,101355.89
2019-02-21T00:15:58.167Z,101358.36
2019-02-21T00:18:27.544Z,101361.42
2019-02-21T00:20:56.943Z,101367.72
2019-02-21T00:23:26.319Z,101365.52
2019-02-21T00:25:55.905Z,101364.70
2019-02-21T00:28:25.316Z,101366.57
2019-02-21T00:30:54.644Z,101364.18
2019-02-21T00:33:24.047Z,101368.94
2019-02-21T00:35:53.453Z,101366.58
2019-02-21T00:38:22.835Z,101375.30
2019-02-21T00:40:52.214Z,101378.41
2019-02-21T00:43:21.564Z,101377.17
2019-02-21T00:45:50.955Z,101376.23
2019-02-21T00:48:20.280Z,101373.94
2019-02-21T00:50:49.771Z,101379.59
2019-02-21T00:53:19.124Z,101376.98
2019-02-21T00:55:48.480Z,101378.52
2019-02-21T00:58:17.907Z,101373.10
2019-02-21T01:00:47.340Z,101368.56
2019-02-21T01:03:16.770Z,101368.56
2019-02-21T01:05:46.160Z,101368.94
2019-02-21T01:08:15.514Z,101379.36
2019-02-21T01:10:44.895Z,101372.41
2019-02-21T01:13:14.265Z,101371.89
2019-02-21T01:15:43.655Z,101370.27
2019-02-21T01:18:12.999Z,101380.91
2019-02-21T01:20:42.358Z,101375.05
2019-02-21T01:23:11.710Z,101377.73
2019-02-21T01:25:41.099Z,101377.73
2019-02-21T01:28:10.455Z,101370.02
2019-02-21T01:30:39.863Z,101367.48
2019-02-21T01:33:09.213Z,101362.28
2019-02-21T01:35:38.531Z,101361.97
2019-02-21T01:38:07.954Z,101368.13
2019-02-21T01:40:37.302Z,101367.79
2019-02-21T01:43:06.693Z,101367.79
2019-02-21T01:45:36.043Z,101377.30
2019-02-21T01:48:05.443Z,101378.76
2019-02-21T01:50:34.795Z,101378.76
2019-02-21T01:53:04.267Z,101377.13
2019-02-21T01:55:33.646Z,101378.48
2019-02-21T01:58:03.033Z,101395.04
2019-02-21T02:00:32.385Z,101395.04
2019-02-21T02:03:01.796Z,101400.06
2019-02-21T02:05:31.209Z,101400.46
2019-02-21T02:08:00.572Z,101400.46
2019-02-21T02:10:29.904Z,101395.58
2019-02-21T02:12:59.305Z,101395.58
2019-02-21T02:15:28.628Z,101401.02
2019-02-21T02:17:58.067Z,101390.32
2019-02-21T02:20:27.443Z,101396.33
2019-02-21T02:22:56.847Z,101397.30
2019-02-21T02:25:26.187Z,101397.30
2019-02-21T02:27:55.776Z,101404.61
2019-02-21T02:30:25.207Z,101403.73
2019-02-21T02:32:54.624Z,101391.23
2019-02-21T02:35:24.013Z,101391.23
2019-02-21T02:37:53.366Z,101397.58
2019-02-21T02:40:22.815Z,101397.58
2019-02-21T02:42:52.208Z,101399.71
2019-02-21T02:45:21.696Z,101414.00
2019-02-21T02:47:51.056Z,101414.00
2019-02-21T02:50:20.513Z,101416.52
2019-02-21T02:52:49.893Z,101417.84
2019-02-21T02:55:19.289Z,101414.48
2019-02-21T02:57:48.663Z,101414.48
2019-02-21T03:00:18.083Z,101416.91
2019-02-21T03:02:47.425Z,101416.91
2019-02-21T03:05:16.890Z,101403.45
2019-02-21T03:07:46.245Z,101405.28
2019-02-21T03:10:15.603Z,101405.28
2019-02-21T03:12:45.079Z,101406.99
2019-02-21T03:15:14.495Z,101403.66
2019-02-21T03:17:43.833Z,101420.06
2019-02-21T03:20:13.219Z,101418.28
2019-02-21T03:22:42.575Z,101418.28
2019-02-21T03:25:11.992Z,101417.35
2019-02-21T03:27:41.383Z,101408.36
2019-02-21T03:30:12.532Z,101412.67
2019-02-21T03:32:42.320Z,101412.67
2019-02-21T03:35:11.678Z,101412.89
2019-02-21T03:37:41.079Z,101407.56
2019-02-21T03:40:11.257Z,101410.00
2019-02-21T03:42:40.640Z,101410.00
2019-02-21T03:45:10.670Z,101415.63
2019-02-21T03:47:40.138Z,101410.55
2019-02-21T03:50:09.718Z,101415.29
2019-02-21T03:52:39.098Z,101416.23
2019-02-21T03:55:08.477Z,101409.77
2019-02-21T03:57:37.862Z,101409.77
2019-02-21T04:00:07.499Z,101413.81
2019-02-21T04:02:36.916Z,101416.30
2019-02-21T04:05:06.370Z,101410.83
2019-02-21T04:07:35.784Z,101410.83
2019-02-21T04:10:05.325Z,101408.30
2019-02-21T04:12:34.718Z,101407.72
2019-02-21T04:15:04.954Z,101407.18
2019-02-21T04:17:34.334Z,101394.38
2019-02-21T04:20:03.691Z,101399.05
2019-02-21T04:22:33.134Z,101399.05
2019-02-21T04:25:02.517Z,101402.38
2019-02-21T04:27:31.906Z,101392.51
2019-02-21T04:30:01.237Z,101403.37
2019-02-21T04:32:30.656Z,101403.37
2019-02-21T04:35:00.253Z,101408.62
2019-02-21T04:37:29.837Z,101418.72
2019-02-21T04:39:59.186Z,101418.72
2019-02-21T04:42:28.635Z,101416.77
2019-02-21T04:44:58.055Z,101412.96
2019-02-21T04:47:27.521Z,101412.87
2019-02-21T04:49:56.921Z,101412.87
2019-02-21T04:52:26.305Z,101402.00
2019-02-21T04:54:55.727Z,101417.02
2019-02-21T04:57:25.129Z,101407.32
2019-02-21T04:59:54.445Z,101414.93
2019-02-21T05:02:29.111Z,101414.93
2019-02-21T05:04:54.959Z,101407.00
2019-02-21T05:07:24.293Z,101412.00
2019-02-21T05:09:57.954Z,101413.22
2019-02-21T05:12:24.855Z,101413.22
2019-02-21T05:14:54.242Z,101418.67
2019-02-21T05:17:23.573Z,101412.98
2019-02-21T05:19:53.033Z,101410.59
2019-02-21T05:22:22.382Z,101410.36
2019-02-21T05:24:51.767Z,101405.23
2019-02-21T05:27:26.359Z,101405.23
2019-02-21T05:29:55.741Z,101414.09
2019-02-21T05:32:40.619Z,101414.56
2019-02-21T05:35:24.825Z,101414.56
2019-02-21T05:38:19.273Z,101406.16
2019-02-21T05:41:12.414Z,101406.16
2019-02-21T05:44:06.782Z,101411.89
2019-02-21T05:47:10.182Z,101417.11
2019-02-21T05:49:53.277Z,101421.30
2019-02-21T05:52:50.574Z,101413.70
2019-02-21T05:55:31.827Z,101419.69
2019-02-21T05:58:23.096Z,101419.69
2019-02-21T06:01:01.681Z,101403.06
2019-02-21T06:03:43.216Z,101411.64
2019-02-21T06:06:31.636Z,101411.61
2019-02-21T06:09:24.507Z,101419.02
2019-02-21T06:12:11.724Z,101414.07
2019-02-21T06:15:00.303Z,101410.44
2019-02-21T06:17:47.727Z,101406.41
2019-02-21T06:20:45.652Z,101402.84
2019-02-21T06:23:39.827Z,101411.47
2019-02-21T06:26:19.639Z,101413.80
2019-02-21T06:28:59.859Z,101413.80
2019-02-21T06:31:29.241Z,101423.80
2019-02-21T06:33:58.609Z,101418.52
2019-02-21T06:36:28.016Z,101424.23
2019-02-21T06:38:57.359Z,101434.05
2019-02-21T06:41:26.760Z,101429.73
2019-02-21T06:43:56.972Z,101421.17
2019-02-21T06:46:28.067Z,101428.14
2019-02-21T06:48:57.408Z,101429.05
2019-02-21T06:51:26.858Z,101431.32
2019-02-21T06:53:56.244Z,101431.32
2019-02-21T06:56:26.023Z,101422.88
2019-02-21T06:58:55.358Z,101445.95
2019-02-21T07:01:29.023Z,101440.66
2019-02-21T07:03:56.048Z,101440.66
2019-02-21T07:06:31.978Z,101445.80
2019-02-21T07:08:56.761Z,101449.55
2019-02-21T07:11:26.220Z,101442.60
2019-02-21T07:13:55.682Z,101453.42
2019-02-21T07:16:25.071Z,101451.55
2019-02-21T07:18:54.836Z,101436.41
2019-02-21T07:21:24.281Z,101459.16
2019-02-21T07:23:53.799Z,101453.73
2019-02-21T07:26:23.165Z,101466.73
2019-02-21T07:28:52.864Z,101466.73
2019-02-21T07:31:28.877Z,101463.95
2019-02-21T07:33:53.528Z,101473.31
2019-02-21T07:36:22.999Z,101474.77
2019-02-21T07:38:56.669Z,101474.77
2019-02-21T07:41:23.769Z,101474.61
2019-02-21T07:43:53.163Z,101473.39
2019-02-21T07:46:22.663Z,101485.09
2019-02-21T07:48:52.049Z,101478.26
2019-02-21T07:51:21.391Z,101478.26
2019-02-21T07:53:50.781Z,101484.23
2019-02-21T07:56:20.150Z,101493.14
2019-02-21T07:58:49.597Z,101493.14
2019-02-21T08:01:18.956Z,101493.19
2019-02-21T08:03:48.837Z,101493.19
2019-02-21T08:06:19.906Z,101504.34
2019-02-21T08:08:49.736Z,101504.34
2019-02-21T08:11:19.082Z,101502.18
2019-02-21T08:13:48.450Z,101507.48
2019-02-21T08:16:17.862Z,101518.58
2019-02-21T08:18:48.031Z,101515.14
2019-02-21T08:21:18.587Z,101513.34
2019-02-21T08:23:51.020Z,101518.24
2019-02-21T08:26:21.515Z,101518.24
2019-02-21T08:28:51.895Z,101518.63
2019-02-21T08:31:22.840Z,101518.63
2019-02-21T08:33:59.654Z,101513.44
2019-02-21T08:36:30.393Z,101513.44
2019-02-21T08:39:00.994Z,101514.27
2019-02-21T08:41:30.439Z,101520.58
2019-02-21T08:44:01.075Z,101520.58
2019-02-21T08:46:31.861Z,101520.16
2019-02-21T08:49:02.566Z,101524.98
2019-02-21T08:51:33.343Z,101545.63
2019-02-21T08:54:05.671Z,101545.63
2019-02-21T08:56:36.509Z,101539.37
2019-02-21T08:59:07.314Z,101551.46
2019-02-21T09:01:37.974Z,101551.46
2019-02-21T09:04:18.196Z,101546.06
2019-02-21T09:06:41.067Z,101544.77
2019-02-21T09:09:11.777Z,101548.70
2019-02-21T09:11:42.510Z,101543.22
2019-02-21T09:14:13.214Z,101543.38
2019-02-21T09:16:43.925Z,101548.55
2019-02-21T09:19:14.169Z,101539.88
2019-02-21T09:21:44.861Z,101547.14
2019-02-21T09:24:35.249Z,101547.92
2019-02-21T09:26:48.012Z,101547.92
2019-02-21T09:29:18.818Z,101549.83
2019-02-21T09:31:50.181Z,101548.53
2019-02-21T09:34:21.605Z,101548.53
2019-02-21T09:36:52.473Z,101548.70
2019-02-21T09:39:21.890Z,101553.70
2019-02-21T09:41:52.601Z,101547.16
2019-02-21T09:44:27.245Z,101542.80
2019-02-21T09:46:55.852Z,101543.05
2019-02-21T09:49:26.499Z,101546.30
2019-02-21T09:51:57.205Z,101554.33
2019-02-21T09:54:26.639Z,101547.70
2019-02-21T09:56:56.381Z,101550.49
2019-02-21T09:59:25.763Z,101557.23
2019-02-21T10:01:57.518Z,101562.54
2019-02-21T10:04:32.100Z,101539.61
2019-02-21T10:06:57.363Z,101553.38
2019-02-21T10:09:26.749Z,101551.08
2019-02-21T10:11:56.100Z,101549.16
2019-02-21T10:14:25.487Z,101544.69
2019-02-21T10:16:54.861Z,101543.78
2019-02-21T10:19:24.249Z,101546.20
2019-02-21T10:21:53.631Z,101547.95
2019-02-21T10:24:23.001Z,101556.37
2019-02-21T10:26:52.349Z,101551.00
2019-02-21T10:29:21.727Z,101549.55
2019-02-21T10:31:51.073Z,101564.14
2019-02-21T10:34:21.783Z,101574.86
2019-02-21T10:36:51.398Z,101565.50
2019-02-21T10:39:20.840Z,101558.66
2019-02-21T10:41:50.202Z,101558.92
2019-02-21T10:44:19.615Z,101561.33
2019-02-21T10:46:49.262Z,101558.50
2019-02-21T10:49:19.023Z,101561.34
2019-02-21T10:51:48.682Z,101561.15
2019-02-21T10:54:18.292Z,101560.80
2019-02-21T10:56:47.854Z,101564.65
2019-02-21T10:59:17.553Z,101561.82
2019-02-21T11:01:47.209Z,101559.54
2019-02-21T11:04:16.856Z,101564.75
2019-02-21T11:06:46.547Z,101564.70
2019-02-21T11:09:21.599Z,101561.77
2019-02-21T11:11:51.174Z,101566.11
2019-02-21T11:14:20.942Z,101560.08
2019-02-21T11:16:50.624Z,101566.50
2019-02-21T11:19:20.212Z,101563.42
2019-02-21T11:21:50.072Z,101562.83
2019-02-21T11:24:19.931Z,101553.44
2019-02-21T11:26:49.725Z,101554.61
2019-02-21T11:29:19.328Z,101549.76
2019-02-21T11:31:49.227Z,101551.80
2019-02-21T11:34:18.886Z,101548.48
2019-02-21T11:36:48.526Z,101543.38
2019-02-21T11:39:18.195Z,101536.35
2019-02-21T11:41:47.845Z,101536.06
2019-02-21T11:44:17.504Z,101542.24
2019-02-21T11:46:47.243Z,101542.97
2019-02-21T11:49:16.812Z,101535.20
2019-02-21T11:51:46.505Z,101544.59
2019-02-21T11:54:26.548Z,101535.77
2019-02-21T11:56:47.551Z,101542.44
2019-02-21T11:59:17.228Z,101541.02
2019-02-21T12:01:46.834Z,101541.30
2019-02-21T12:04:16.420Z,101531.01
2019-02-21T12:06:47.774Z,101546.63
2019-02-21T12:09:17.498Z,101540.23
2019-02-21T12:11:47.129Z,101534.35
2019-02-21T12:14:16.763Z,101532.17
2019-02-21T12:16:46.457Z,101517.18
2019-02-21T12:19:16.125Z,101512.16
2019-02-21T12:21:45.769Z,101502.23
2019-02-21T12:24:15.420Z,101498.88
2019-02-21T12:26:45.110Z,101493.00
2019-02-21T12:29:14.849Z,101497.70
2019-02-21T12:31:44.533Z,101493.34
2019-02-21T12:34:14.317Z,101485.17
2019-02-21T12:36:43.989Z,101488.32
2019-02-21T12:39:13.635Z,101488.83
2019-02-21T12:41:43.269Z,101491.62
2019-02-21T12:44:12.926Z,101488.94
2019-02-21T12:46:45.485Z,101480.59
2019-02-21T12:49:13.902Z,101476.39
2019-02-21T12:51:43.683Z,101477.63
2019-02-21T12:54:13.326Z,101480.66
2019-02-21T12:56:42.893Z,101483.12
2019-02-21T12:59:12.397Z,101475.66
2019-02-21T13:01:42.133Z,101482.98
2019-02-21T13:04:11.753Z,101482.97
2019-02-21T13:06:41.406Z,101481.72
2019-02-21T13:09:11.186Z,101487.37
2019-02-21T13:11:40.946Z,101490.77
2019-02-21T13:14:12.984Z,101495.55
2019-02-21T13:16:42.724Z,101497.70
2019-02-21T13:19:12.340Z,101501.95
2019-02-21T13:21:41.939Z,101504.55
2019-02-21T13:24:11.593Z,101501.37
2019-02-21T13:26:40.949Z,101496.08
2019-02-21T13:29:10.348Z,101482.61
2019-02-21T13:31:39.706Z,101479.20
2019-02-21T13:34:09.200Z,101484.79
2019-02-21T13:36:38.539Z,101482.12
2019-02-21T13:39:09.006Z,101483.58
2019-02-21T13:41:38.387Z,101485.84
2019-02-21T13:44:07.869Z,101484.66
2019-02-21T13:46:40.694Z,101484.86
2019-02-21T13:49:09.170Z,101485.91
2019-02-21T13:51:38.569Z,101495.98
2019-02-21T13:54:07.918Z,101489.73
2019-02-21T13:56:37.360Z,101477.66
2019-02-21T13:59:06.699Z,101477.37
2019-02-21T14:01:36.088Z,101475.84
2019-02-21T14:04:05.667Z,101469.92
2019-02-21T14:06:35.063Z,101467.82
2019-02-21T14:09:05.272Z,101460.30
2019-02-21T14:11:35.012Z,101464.64
2019-02-21T14:14:04.369Z,101460.31
2019-02-21T14:16:33.752Z,101457.45
2019-02-21T14:19:03.443Z,101452.70
2019-02-21T14:21:33.097Z,101444.74
2019-02-21T14:24:02.712Z,101440.27
2019-02-21T14:26:32.308Z,101439.38
2019-02-21T14:29:01.971Z,101442.73
2019-02-21T14:31:33.609Z,101456.95
2019-02-21T14:34:02.712Z,101454.03
2019-02-21T14:36:32.205Z,101460.18
2019-02-21T14:39:01.581Z,101453.36
2019-02-21T14:41:30.979Z,101455.16
2019-02-21T14:44:00.584Z,101446.95
2019-02-21T14:46:30.034Z,101443.11
2019-02-21T14:48:59.371Z,101446.02
2019-02-21T14:51:28.841Z,101449.56
2019-02-21T14:53:58.184Z,101447.98
2019-02-21T14:56:27.604Z,101442.70
2019-02-21T14:58:56.945Z,101444.38
2019-02-21T15:01:26.362Z,101444.63
2019-02-21T15:03:55.703Z,101456.22
2019-02-21T15:06:27.388Z,101450.42
2019-02-21T15:08:56.309Z,101445.23
2019-02-21T15:11:25.692Z,101437.52
2019-02-21T15:13:55.100Z,101441.58
2019-02-21T15:16:24.482Z,101439.59
2019-02-21T15:18:55.324Z,101430.44
2019-02-21T15:21:24.919Z,101430.91
2019-02-21T15:23:54.295Z,101439.46
2019-02-21T15:26:23.708Z,101447.41
2019-02-21T15:28:53.049Z,101452.08
2019-02-21T15:31:22.449Z,101457.00
2019-02-21T15:33:52.053Z,101457.86
2019-02-21T15:36:21.445Z,101464.44
2019-02-21T15:38:50.849Z,101454.52
2019-02-21T15:41:20.199Z,101461.06
2019-02-21T15:43:49.608Z,101461.69
2019-02-21T15:46:18.971Z,101459.20
2019-02-21T15:48:48.356Z,101458.71
2019-02-21T15:51:17.844Z,101455.45
2019-02-21T15:53:47.265Z,101462.23
2019-02-21T15:56:16.602Z,101458.69
2019-02-21T15:58:46.029Z,101460.20
2019-02-21T16:01:15.364Z,101464.43
2019-02-21T16:03:44.749Z,101470.55
2019-02-21T16:06:14.134Z,101469.86
2019-02-21T16:08:43.543Z,101466.58
2019-02-21T16:11:13.020Z,101472.39
2019-02-21T16:13:42.489Z,101469.61
2019-02-21T16:16:11.855Z,101472.34
2019-02-21T16:18:41.239Z,101476.67
2019-02-21T16:21:10.687Z,101472.05
2019-02-21T16:23:40.064Z,101477.22
2019-02-21T16:26:09.492Z,101482.59
2019-02-21T16:28:38.888Z,101477.00
2019-02-21T16:31:08.268Z,101484.84
2019-02-21T16:33:37.799Z,101485.27
2019-02-21T16:36:07.235Z,101483.72
2019-02-21T16:38:36.634Z,101481.66
2019-02-21T16:41:06.009Z,101486.25
2019-02-21T16:43:35.417Z,101483.14
2019-02-21T16:46:07.733Z,101487.10
2019-02-21T16:48:35.910Z,101487.25
2019-02-21T16:51:05.309Z,101485.13
2019-02-21T16:53:34.695Z,101497.92
2019-02-21T16:56:04.059Z,101491.43
2019-02-21T16:58:33.449Z,101496.58
2019-02-21T17:01:02.828Z,101489.34
2019-02-21T17:03:32.273Z,101489.56
2019-02-21T17:06:03.516Z,101496.31
2019-02-21T17:08:32.813Z,101499.46
2019-02-21T17:11:02.180Z,101506.74
2019-02-21T17:13:31.534Z,101509.62
2019-02-21T17:16:01.585Z,101508.98
2019-02-21T17:18:30.981Z,101511.39
2019-02-21T17:21:00.429Z,101511.70
2019-02-21T17:23:29.774Z,101514.28
2019-02-21T17:25:59.269Z,101517.70
2019-02-21T17:28:28.668Z,101517.56
2019-02-21T17:30:58.090Z,101514.80
2019-02-21T17:33:27.448Z,101520.44
2019-02-21T17:35:56.889Z,101518.91
2019-02-21T17:38:26.249Z,101529.47
2019-02-21T17:40:55.661Z,101532.13
2019-02-21T17:43:25.069Z,101532.05
2019-02-21T17:45:54.468Z,101542.11
2019-02-21T17:48:23.812Z,101542.62
2019-02-21T17:50:53.215Z,101547.37
2019-02-21T17:53:22.616Z,101546.46
2019-02-21T17:55:51.994Z,101554.90
2019-02-21T17:58:21.378Z,101556.00
2019-02-21T18:00:50.787Z,101558.23
2019-02-21T18:03:20.118Z,101555.42
2019-02-21T18:05:49.520Z,101546.66
2019-02-21T18:08:18.924Z,101549.20
2019-02-21T18:10:48.329Z,101551.40
2019-02-21T18:13:17.697Z,101555.05
2019-02-21T18:15:47.143Z,101557.61
2019-02-21T18:18:16.499Z,101556.00
2019-02-21T18:20:45.896Z,101558.23
2019-02-21T18:23:15.249Z,101554.05
2019-02-21T18:25:48.137Z,101553.95
2019-02-21T18:28:17.551Z,101547.41
2019-02-21T18:30:46.882Z,101553.59
2019-02-21T18:33:16.311Z,101549.92
2019-02-21T18:35:45.620Z,101559.44
2019-02-21T18:38:15.024Z,101556.78
2019-02-21T18:40:44.379Z,101556.30
2019-02-21T18:43:13.775Z,101554.59
2019-02-21T18:45:43.139Z,101555.70
2019-02-21T18:48:12.536Z,101559.95
2019-02-21T18:50:41.897Z,101556.19
2019-02-21T18:53:11.297Z,101560.72
2019-02-21T18:55:40.675Z,101557.95
2019-02-21T18:58:10.062Z,101555.64
2019-02-21T19:00:39.407Z,101558.70
2019-02-21T19:03:08.862Z,101561.51
2019-02-21T19:05:38.308Z,101561.14
2019-02-21T19:08:07.718Z,101564.66
2019-02-21T19:10:37.078Z,101567.60
2019-02-21T19:13:07.815Z,101576.34
2019-02-21T19:15:37.517Z,101570.47
2019-02-21T19:18:06.917Z,101578.19
2019-02-21T19:20:36.326Z,101575.49
2019-02-21T19:23:05.706Z,101579.40
2019-02-21T19:25:35.070Z,101582.91
2019-02-21T19:28:04.466Z,101581.59
2019-02-21T19:30:37.428Z,101570.99
2019-02-21T19:33:06.827Z,101574.27
2019-02-21T19:35:36.269Z,101576.96
2019-02-21T19:38:10.604Z,101588.87
2019-02-21T19:40:36.797Z,101592.05
2019-02-21T19:43:06.244Z,101589.26
2019-02-21T19:45:35.630Z,101588.23
2019-02-21T19:48:04.972Z,101593.96
2019-02-21T19:50:34.353Z,101593.58
2019-02-21T19:53:03.699Z,101593.56
2019-02-21T19:55:33.095Z,101603.53
2019-02-21T19:58:02.472Z,101604.02
2019-02-21T20:00:34.109Z,101604.11
2019-02-21T20:03:03.465Z,101605.03
2019-02-21T20:05:32.912Z,101605.95
2019-02-21T20:08:08.585Z,101599.83
2019-02-21T20:10:33.489Z,101605.00
2019-02-21T20:13:04.301Z,101604.94
2019-02-21T20:15:33.710Z,101607.18
2019-02-21T20:18:29.338Z,101613.53
2019-02-21T20:20:58.821Z,101617.61
2019-02-21T20:23:28.221Z,101620.52
2019-02-21T20:25:57.800Z,101626.89
2019-02-21T20:28:27.159Z,101624.58
2019-02-21T20:30:56.559Z,101630.51
2019-02-21T20:33:25.905Z,101627.38
2019-02-21T20:35:55.289Z,101627.87
2019-02-21T20:38:31.766Z,101634.15
2019-02-21T20:40:55.753Z,101638.30
2019-02-21T20:43:25.118Z,101643.30
2019-02-21T20:45:54.659Z,101644.88
2019-02-21T20:48:24.114Z,101644.80
2019-02-21T20:50:56.846Z,101641.98
2019-02-21T20:53:24.556Z,101649.52
2019-02-21T20:55:53.941Z,101645.48
2019-02-21T20:58:23.342Z,101653.86
2019-02-21T21:00:52.914Z,101654.13
2019-02-21T21:03:24.017Z,101661.00
2019-02-21T21:05:53.390Z,101657.36
2019-02-21T21:08:22.762Z,101654.72
2019-02-21T21:10:52.084Z,101659.77
2019-02-21T21:13:21.481Z,101663.84
2019-02-21T21:15:50.847Z,101669.02
2019-02-21T21:18:20.232Z,101667.24
2019-02-21T21:20:49.590Z,101668.23
2019-02-21T21:23:19.008Z,101675.81
2019-02-21T21:25:48.317Z,101669.56
2019-02-21T21:28:17.694Z,101674.75
2019-02-21T21:30:47.024Z,101679.32
2019-02-21T21:33:16.417Z,101684.16
2019-02-21T21:35:45.746Z,101687.95
2019-02-21T21:38:23.756Z,101688.61
2019-02-21T21:40:46.233Z,101679.73
2019-02-21T21:43:15.645Z,101685.81
2019-02-21T21:45:44.987Z,101678.10
2019-02-21T21:48:14.357Z,101688.69
2019-02-21T21:50:43.710Z,101686.66
2019-02-21T21:53:13.080Z,101693.41
2019-02-21T21:55:42.429Z,101687.37
2019-02-21T21:58:12.992Z,101690.44
2019-02-21T22:00:42.558Z,101700.15
2019-02-21T22:03:11.921Z,101701.64
2019-02-21T22:05:41.275Z,101704.59
2019-02-21T22:08:10.663Z,101702.53
2019-02-21T22:10:40.006Z,101707.16
2019-02-21T22:13:09.381Z,101712.84
2019-02-21T22:15:38.778Z,101711.17
2019-02-21T22:18:08.151Z,101704.75
2019-02-21T22:20:37.561Z,101705.88
2019-02-21T22:23:06.905Z,101701.31
2019-02-21T22:25:37.317Z,101711.53
2019-02-21T22:28:06.741Z,101710.52
2019-02-21T22:30:36.124Z,101715.77
2019-02-21T22:33:05.492Z,101722.48
2019-02-21T22:35:34.910Z,101722.14
2019-02-21T22:38:04.264Z,101719.27
2019-02-21T22:40:33.633Z,101720.54
2019-02-21T22:43:02.992Z,101729.19
2019-02-21T22:45:32.393Z,101730.75
2019-02-21T22:48:01.750Z,101733.40
2019-02-21T22:50:31.142Z,101742.16
2019-02-21T22:53:00.499Z,101741.00
2019-02-21T22:55:29.902Z,101741.56
2019-02-21T22:57:59.238Z,101737.69
2019-02-21T23:00:42.770Z,101739.97
2019-02-21T23:03:12.148Z,101743.78
2019-02-21T23:06:21.209Z,101730.76
2019-02-21T23:08:53.985Z,101730.33
2019-02-21T23:11:23.687Z,101733.53
2019-02-21T23:13:53.523Z,101725.60
2019-02-21T23:16:23.012Z,101731.02
2019-02-21T23:18:52.360Z,101719.77
2019-02-21T23:21:21.754Z,101719.98
2019-02-21T23:23:51.103Z,101716.56
2019-02-21T23:26:20.513Z,101712.75
2019-02-21T23:28:49.883Z,101711.27
2019-02-21T23:31:19.270Z,101712.06
2019-02-21T23:33:53.412Z,101710.76
2019-02-21T23:36:22.827Z,101712.02
2019-02-21T23:38:52.180Z,101706.61
2019-02-21T23:41:21.597Z,101708.67
2019-02-21T23:43:50.945Z,101698.02
2019-02-21T23:46:20.315Z,101708.70
2019-02-21T23:48:49.710Z,101709.94
2019-02-21T23:51:19.087Z,101718.41
2019-02-21T23:53:48.489Z,101720.02
2019-02-21T23:56:17.867Z,101719.30
2019-02-21T23:58:47.256Z,101719.83
